createdAt,value
2023-02-03T00:00:51.867Z,5.13
2023-02-03T00:03:22.284Z,4.88
2023-02-03T00:05:54.550Z,4.54
2023-02-03T00:08:25.635Z,4.79
2023-02-03T00:10:56.888Z,5.31
2023-02-03T00:13:27.410Z,4.51
2023-02-03T00:15:58.664Z,4.41
2023-02-03T00:18:29.389Z,4.09
2023-02-03T00:21:01.362Z,4.40
2023-02-03T00:23:32.586Z,4.52
2023-02-03T00:26:10.108Z,4.57
2023-02-03T00:28:41.246Z,4.17
2023-02-03T00:31:19.195Z,4.58
2023-02-03T00:33:50.123Z,4.44
2023-02-03T00:36:23.356Z,4.38
2023-02-03T00:38:54.068Z,4.31
2023-02-03T00:41:25.569Z,3.79
2023-02-03T00:43:57.492Z,3.79
2023-02-03T00:46:28.233Z,3.65
2023-02-03T00:48:59.140Z,4.31
2023-02-03T00:51:31.956Z,4.47
2023-02-03T00:54:03.172Z,4.23
2023-02-03T00:56:34.067Z,3.95
2023-02-03T00:59:04.533Z,3.61
2023-02-03T01:01:34.829Z,4.47
2023-02-03T01:04:05.553Z,4.19
2023-02-03T01:06:37.912Z,4.08
2023-02-03T01:09:08.457Z,4.24
2023-02-03T01:11:38.839Z,4.44
2023-02-03T01:14:09.439Z,4.72
2023-02-03T01:16:40.479Z,4.82
2023-02-03T01:19:11.189Z,4.49
2023-02-03T01:21:43.449Z,4.52
2023-02-03T01:24:15.378Z,4.57
2023-02-03T01:26:46.400Z,4.63
2023-02-03T01:29:17.700Z,4.31
2023-02-03T01:31:48.310Z,4.45
2023-02-03T01:34:18.805Z,4.41
2023-02-03T01:36:52.159Z,4.41
2023-02-03T01:39:22.211Z,4.10
2023-02-03T01:41:53.138Z,4.27
2023-02-03T01:44:43.702Z,4.96
2023-02-03T01:47:20.589Z,4.50
2023-02-03T01:49:53.694Z,4.65
2023-02-03T01:52:25.769Z,4.26
2023-02-03T01:54:58.285Z,4.15
2023-02-03T01:57:32.178Z,4.25
2023-02-03T02:00:03.438Z,4.01
2023-02-03T02:02:35.247Z,4.42
2023-02-03T02:05:10.611Z,4.23
2023-02-03T02:07:42.421Z,3.96
2023-02-03T02:10:13.722Z,3.90
2023-02-03T02:12:44.030Z,4.37
2023-02-03T02:15:14.353Z,4.41
2023-02-03T02:18:06.271Z,3.90
2023-02-03T02:21:13.755Z,4.67
2023-02-03T02:24:24.919Z,3.87
2023-02-03T02:27:05.106Z,4.59
2023-02-03T02:30:01.537Z,3.93
2023-02-03T02:32:44.269Z,4.14
2023-02-03T02:35:22.069Z,3.96
2023-02-03T02:37:55.783Z,4.75
2023-02-03T02:40:33.454Z,4.09
2023-02-03T02:43:09.780Z,3.84
2023-02-03T02:45:47.148Z,3.92
2023-02-03T02:48:25.080Z,4.08
2023-02-03T02:50:58.689Z,3.99
2023-02-03T02:53:34.417Z,3.84
2023-02-03T02:56:09.732Z,4.16
2023-02-03T02:58:42.733Z,3.49
2023-02-03T03:01:13.357Z,3.52
2023-02-03T03:03:45.593Z,4.25
2023-02-03T03:06:19.876Z,3.87
2023-02-03T03:08:53.902Z,3.77
2023-02-03T03:11:25.431Z,3.96
2023-02-03T03:13:57.214Z,3.42
2023-02-03T03:16:29.757Z,3.74
2023-02-03T03:19:04.748Z,3.61
2023-02-03T03:21:39.237Z,3.72
2023-02-03T03:24:14.364Z,4.50
2023-02-03T03:26:48.401Z,4.06
2023-02-03T03:29:21.259Z,3.81
2023-02-03T03:31:52.219Z,4.08
2023-02-03T03:34:23.805Z,4.23
2023-02-03T03:36:59.623Z,3.93
2023-02-03T03:39:34.699Z,4.07
2023-02-03T03:42:11.264Z,2.99
2023-02-03T03:44:47.343Z,3.63
2023-02-03T03:47:21.710Z,3.32
2023-02-03T03:49:53.972Z,3.79
2023-02-03T03:52:28.600Z,3.25
2023-02-03T03:54:59.839Z,3.16
2023-02-03T03:57:33.030Z,3.26
2023-02-03T04:00:06.390Z,3.34
2023-02-03T04:02:37.542Z,3.26
2023-02-03T04:05:15.303Z,3.61
2023-02-03T04:07:47.744Z,3.84
2023-02-03T04:10:24.598Z,3.97
2023-02-03T04:12:54.949Z,3.91
2023-02-03T04:15:25.517Z,3.65
2023-02-03T04:17:57.441Z,3.75
2023-02-03T04:20:29.614Z,3.43
2023-02-03T04:22:59.752Z,3.66
2023-02-03T04:25:29.883Z,3.50
2023-02-03T04:28:01.183Z,2.97
2023-02-03T04:30:31.696Z,2.89
2023-02-03T04:33:02.484Z,2.99
2023-02-03T04:35:33.966Z,3.20
2023-02-03T04:38:04.540Z,3.38
2023-02-03T04:40:35.161Z,3.72
2023-02-03T04:43:09.815Z,4.05
2023-02-03T04:45:39.977Z,3.57
2023-02-03T04:48:11.370Z,2.99
2023-02-03T04:50:43.272Z,3.15
2023-02-03T04:53:15.656Z,3.78
2023-02-03T04:55:50.024Z,3.56
2023-02-03T04:58:20.676Z,3.93
2023-02-03T05:00:50.615Z,3.39
2023-02-03T05:03:22.603Z,3.12
2023-02-03T05:05:58.765Z,3.66
2023-02-03T05:08:29.360Z,3.31
2023-02-03T05:11:01.778Z,3.15
2023-02-03T05:13:32.399Z,3.82
2023-02-03T05:16:01.996Z,4.06
2023-02-03T05:18:33.484Z,3.59
2023-02-03T05:21:06.001Z,3.34
2023-02-03T05:23:36.976Z,3.79
2023-02-03T05:26:07.311Z,3.91
2023-02-03T05:28:37.537Z,3.19
2023-02-03T05:31:08.494Z,3.37
2023-02-03T05:33:39.564Z,3.58
2023-02-03T05:36:12.450Z,4.00
2023-02-03T05:38:43.079Z,3.93
2023-02-03T05:41:30.761Z,3.65
2023-02-03T05:44:00.502Z,3.68
2023-02-03T05:46:31.761Z,3.49
2023-02-03T05:49:02.439Z,4.04
2023-02-03T05:51:34.252Z,4.17
2023-02-03T05:54:04.122Z,3.91
2023-02-03T05:56:33.636Z,3.93
2023-02-03T05:59:03.725Z,4.09
2023-02-03T06:01:34.840Z,4.07
2023-02-03T06:04:06.697Z,4.40
2023-02-03T06:06:39.175Z,4.07
2023-02-03T06:09:10.770Z,4.46
2023-02-03T06:11:43.095Z,4.29
2023-02-03T06:14:13.392Z,4.01
2023-02-03T06:16:43.997Z,4.31
2023-02-03T06:19:21.648Z,3.50
2023-02-03T06:22:03.245Z,3.91
2023-02-03T06:24:42.923Z,3.86
2023-02-03T06:27:22.933Z,4.02
2023-02-03T06:29:54.212Z,4.49
2023-02-03T06:32:25.311Z,4.01
2023-02-03T06:34:55.392Z,4.16
2023-02-03T06:37:27.282Z,3.99
2023-02-03T06:39:57.490Z,4.29
2023-02-03T06:42:28.062Z,3.62
2023-02-03T06:44:57.795Z,3.33
2023-02-03T06:47:28.789Z,3.48
2023-02-03T06:49:59.533Z,4.14
2023-02-03T06:52:31.004Z,4.21
2023-02-03T06:55:00.734Z,3.72
2023-02-03T06:57:30.963Z,3.55
2023-02-03T07:00:01.602Z,3.92
2023-02-03T07:02:32.191Z,4.09
2023-02-03T07:05:02.768Z,4.02
2023-02-03T07:07:35.642Z,3.84
2023-02-03T07:10:05.337Z,4.36
2023-02-03T07:12:36.925Z,4.44
2023-02-03T07:15:08.400Z,4.16
2023-02-03T07:17:38.821Z,3.79
2023-02-03T07:20:10.624Z,3.90
2023-02-03T07:22:44.751Z,4.25
2023-02-03T07:25:15.697Z,3.80
2023-02-03T07:27:45.816Z,4.22
2023-02-03T07:30:16.581Z,4.29
2023-02-03T07:32:50.286Z,4.65
2023-02-03T07:35:21.300Z,4.74
2023-02-03T07:37:53.293Z,4.95
2023-02-03T07:40:23.821Z,4.50
2023-02-03T07:42:54.718Z,4.58
2023-02-03T07:45:25.083Z,4.60
2023-02-03T07:47:55.663Z,3.60
2023-02-03T07:50:25.526Z,3.71
2023-02-03T07:52:57.366Z,4.02
2023-02-03T07:55:28.719Z,3.68
2023-02-03T07:58:02.914Z,3.99
2023-02-03T08:00:34.797Z,4.32
2023-02-03T08:03:11.380Z,4.59
2023-02-03T08:05:45.686Z,4.14
2023-02-03T08:08:17.989Z,4.30
2023-02-03T08:10:48.602Z,3.87
2023-02-03T08:13:18.809Z,4.36
2023-02-03T08:15:50.356Z,4.12
2023-02-03T08:18:22.859Z,4.32
2023-02-03T08:20:53.470Z,4.19
2023-02-03T08:23:26.510Z,4.57
2023-02-03T08:25:56.493Z,4.02
2023-02-03T08:28:26.698Z,4.12
2023-02-03T08:30:58.163Z,4.57
2023-02-03T08:33:29.903Z,4.07
2023-02-03T08:36:01.363Z,3.71
2023-02-03T08:38:33.472Z,4.52
2023-02-03T08:41:03.570Z,3.99
2023-02-03T08:43:33.583Z,3.57
2023-02-03T08:46:06.136Z,3.25
2023-02-03T08:48:37.183Z,2.98
2023-02-03T08:51:13.264Z,3.36
2023-02-03T08:53:45.961Z,3.46
2023-02-03T08:56:16.788Z,3.46
2023-02-03T08:58:47.232Z,3.70
2023-02-03T09:01:19.283Z,2.76
2023-02-03T09:03:49.317Z,2.91
2023-02-03T09:06:22.749Z,3.32
2023-02-03T09:08:55.547Z,3.13
2023-02-03T09:11:26.734Z,3.21
2023-02-03T09:13:58.215Z,3.41
2023-02-03T09:16:31.413Z,3.89
2023-02-03T09:19:02.109Z,4.13
2023-02-03T09:21:38.882Z,3.84
2023-02-03T09:24:13.531Z,3.77
2023-02-03T09:26:43.445Z,3.90
2023-02-03T09:29:13.745Z,4.01
2023-02-03T09:31:44.184Z,4.12
2023-02-03T09:34:14.628Z,4.07
2023-02-03T09:36:46.360Z,4.46
2023-02-03T09:39:17.549Z,4.32
2023-02-03T09:42:15.796Z,3.80
2023-02-03T09:44:52.429Z,4.45
2023-02-03T09:47:26.838Z,4.28
2023-02-03T09:50:00.289Z,4.36
2023-02-03T09:52:32.872Z,4.31
2023-02-03T09:55:08.319Z,3.97
2023-02-03T09:57:43.248Z,3.76
2023-02-03T10:00:21.596Z,4.30
2023-02-03T10:02:58.769Z,4.83
2023-02-03T10:05:38.461Z,4.47
2023-02-03T10:08:17.399Z,4.84
2023-02-03T10:11:10.006Z,5.26
2023-02-03T10:13:52.525Z,5.48
2023-02-03T10:16:44.905Z,5.28
2023-02-03T10:19:21.038Z,5.03
2023-02-03T10:21:53.367Z,5.34
2023-02-03T10:24:29.078Z,5.99
2023-02-03T10:27:01.264Z,6.01
2023-02-03T10:29:37.112Z,5.82
2023-02-03T10:32:12.201Z,6.69
2023-02-03T10:34:44.763Z,6.59
2023-02-03T10:37:23.141Z,6.13
2023-02-03T10:39:53.929Z,6.83
2023-02-03T10:42:46.981Z,6.78
2023-02-03T10:45:17.951Z,7.09
2023-02-03T10:47:51.116Z,7.23
2023-02-03T10:50:22.829Z,7.15
2023-02-03T10:52:53.245Z,7.23
2023-02-03T10:55:33.992Z,7.21
2023-02-03T10:58:12.788Z,7.32
2023-02-03T11:00:43.351Z,7.53
2023-02-03T11:03:25.121Z,7.44
2023-02-03T11:06:10.907Z,7.10
2023-02-03T11:08:43.855Z,7.24
2023-02-03T11:11:18.637Z,7.80
2023-02-03T11:13:57.162Z,8.23
2023-02-03T11:16:28.051Z,7.66
2023-02-03T11:19:00.595Z,7.29
2023-02-03T11:21:33.755Z,7.54
2023-02-03T11:24:07.077Z,7.42
2023-02-03T11:26:39.326Z,7.60
2023-02-03T11:29:19.363Z,7.51
2023-02-03T11:31:52.229Z,7.54
2023-02-03T11:34:26.478Z,7.52
2023-02-03T11:36:56.699Z,7.59
2023-02-03T11:39:29.821Z,7.34
2023-02-03T11:42:00.423Z,7.35
2023-02-03T11:44:34.172Z,8.03
2023-02-03T11:47:06.008Z,7.70
2023-02-03T11:50:01.607Z,7.37
2023-02-03T11:52:56.095Z,7.95
2023-02-03T11:55:36.346Z,7.82
2023-02-03T11:58:29.804Z,7.64
2023-02-03T12:01:09.557Z,8.00
2023-02-03T12:04:14.577Z,8.58
2023-02-03T12:07:01.674Z,7.92
2023-02-03T12:09:38.719Z,7.80
2023-02-03T12:12:45.631Z,8.12
2023-02-03T12:15:35.354Z,7.73
2023-02-03T12:18:16.353Z,7.61
2023-02-03T12:21:00.649Z,7.96
2023-02-03T12:23:43.382Z,7.98
2023-02-03T12:26:20.585Z,7.95
2023-02-03T12:29:06.278Z,8.42
2023-02-03T12:31:40.653Z,7.98
2023-02-03T12:34:19.297Z,8.16
2023-02-03T12:36:54.236Z,7.81
2023-02-03T12:39:30.350Z,7.79
2023-02-03T12:42:04.008Z,8.09
2023-02-03T12:44:37.986Z,7.85
2023-02-03T12:47:13.687Z,7.83
2023-02-03T12:49:48.965Z,7.53
2023-02-03T12:52:23.767Z,8.01
2023-02-03T12:55:00.897Z,7.58
2023-02-03T12:57:35.207Z,7.80
2023-02-03T13:00:20.985Z,8.17
2023-02-03T13:03:01.368Z,8.34
2023-02-03T13:05:43.940Z,7.98
2023-02-03T13:08:20.575Z,8.12
2023-02-03T13:10:54.688Z,8.04
2023-02-03T13:13:31.735Z,8.27
2023-02-03T13:16:04.260Z,8.15
2023-02-03T13:18:38.389Z,8.47
2023-02-03T13:21:12.954Z,8.12
2023-02-03T13:23:47.919Z,8.20
2023-02-03T13:26:49.943Z,8.07
2023-02-03T13:29:46.426Z,8.28
2023-02-03T13:32:26.973Z,8.28
2023-02-03T13:35:14.538Z,8.40
2023-02-03T13:38:10.692Z,8.35
2023-02-03T13:40:48.114Z,8.21
2023-02-03T13:43:37.251Z,8.31
2023-02-03T13:46:14.408Z,8.54
2023-02-03T13:48:48.254Z,8.39
2023-02-03T13:51:20.288Z,8.24
2023-02-03T13:53:53.332Z,8.39
2023-02-03T13:56:24.961Z,8.67
2023-02-03T13:59:07.767Z,8.61
2023-02-03T14:01:40.636Z,8.32
2023-02-03T14:04:36.264Z,8.42
2023-02-03T14:07:34.168Z,8.31
2023-02-03T14:10:20.213Z,8.39
2023-02-03T14:13:00.980Z,8.54
2023-02-03T14:15:36.994Z,8.21
2023-02-03T14:18:26.264Z,8.50
2023-02-03T14:21:12.631Z,8.51
2023-02-03T14:24:00.448Z,8.46
2023-02-03T14:26:41.438Z,8.68
2023-02-03T14:29:25.567Z,8.51
2023-02-03T14:32:02.079Z,8.30
2023-02-03T14:34:38.193Z,8.50
2023-02-03T14:37:18.515Z,8.25
2023-02-03T14:40:26.249Z,8.41
2023-02-03T14:43:29.594Z,8.25
2023-02-03T14:46:30.185Z,8.40
2023-02-03T14:49:13.796Z,8.48
2023-02-03T14:51:59.665Z,8.44
2023-02-03T14:54:51.200Z,8.42
2023-02-03T14:57:33.946Z,8.38
2023-02-03T15:00:11.344Z,8.35
2023-02-03T15:03:23.155Z,8.47
2023-02-03T15:05:59.011Z,8.35
2023-02-03T15:08:44.566Z,8.39
2023-02-03T15:11:31.092Z,8.40
2023-02-03T15:14:19.543Z,8.36
2023-02-03T15:17:00.585Z,8.34
2023-02-03T15:19:34.620Z,8.34
2023-02-03T15:22:21.587Z,8.30
2023-02-03T15:24:52.724Z,8.34
2023-02-03T15:27:26.476Z,8.40
2023-02-03T15:29:59.447Z,8.33
2023-02-03T15:32:35.331Z,8.22
2023-02-03T15:35:06.983Z,8.24
2023-02-03T15:37:43.273Z,8.22
2023-02-03T15:40:16.388Z,8.19
2023-02-03T15:42:55.295Z,8.23
2023-02-03T15:45:31.212Z,8.09
2023-02-03T15:48:06.144Z,8.16
2023-02-03T15:50:40.719Z,8.03
2023-02-03T15:53:16.164Z,7.99
2023-02-03T15:55:48.684Z,7.88
2023-02-03T15:58:22.637Z,7.96
2023-02-03T16:00:54.852Z,7.81
2023-02-03T16:03:30.614Z,7.70
2023-02-03T16:06:10.831Z,7.77
2023-02-03T16:08:46.765Z,7.48
2023-02-03T16:11:31.686Z,7.71
2023-02-03T16:14:03.649Z,7.58
2023-02-03T16:16:38.639Z,7.81
2023-02-03T16:19:15.864Z,7.74
2023-02-03T16:21:56.025Z,7.55
2023-02-03T16:24:41.639Z,7.68
2023-02-03T16:27:38.885Z,7.76
2023-02-03T16:30:43.574Z,7.94
2023-02-03T16:33:34.883Z,7.85
2023-02-03T16:36:32.933Z,7.97
2023-02-03T16:39:28.751Z,8.40
2023-02-03T16:42:17.765Z,8.64
2023-02-03T16:45:05.707Z,8.64
2023-02-03T16:47:53.418Z,8.76
2023-02-03T16:50:42.159Z,8.82
2023-02-03T16:53:17.185Z,8.98
2023-02-03T16:55:48.196Z,8.85
2023-02-03T16:58:19.206Z,8.81
2023-02-03T17:00:52.419Z,8.57
2023-02-03T17:03:25.585Z,8.54
2023-02-03T17:05:56.975Z,8.67
2023-02-03T17:08:28.991Z,8.69
2023-02-03T17:11:06.509Z,8.70
2023-02-03T17:13:38.650Z,8.46
2023-02-03T17:16:14.648Z,8.65
2023-02-03T17:18:46.874Z,8.86
2023-02-03T17:21:21.146Z,8.70
2023-02-03T17:23:53.291Z,8.56
2023-02-03T17:26:23.919Z,8.69
2023-02-03T17:28:54.385Z,8.60
2023-02-03T17:31:24.500Z,8.37
2023-02-03T17:33:55.538Z,8.49
2023-02-03T17:36:25.962Z,8.48
2023-02-03T17:55:36.027Z,8.75
2023-02-03T17:58:06.434Z,8.86
2023-02-03T18:00:36.844Z,8.74
2023-02-03T18:03:07.451Z,8.70
2023-02-03T18:05:38.596Z,8.76
2023-02-03T18:08:16.341Z,8.89
2023-02-03T18:10:49.173Z,8.58
2023-02-03T18:13:24.101Z,8.51
2023-02-03T18:15:55.231Z,8.55
2023-02-03T18:18:29.242Z,8.70
2023-02-03T18:20:59.686Z,8.63
2023-02-03T18:23:32.088Z,8.65
2023-02-03T18:26:04.505Z,8.71
2023-02-03T18:28:35.492Z,8.57
2023-02-03T18:31:07.724Z,8.54
2023-02-03T18:33:39.675Z,8.54
2023-02-03T18:36:13.115Z,8.59
2023-02-03T18:38:45.093Z,8.53
2023-02-03T18:41:20.718Z,8.37
2023-02-03T18:43:51.936Z,8.45
2023-02-03T18:46:24.010Z,8.61
2023-02-03T18:48:56.525Z,8.60
2023-02-03T18:51:27.907Z,8.52
2023-02-03T18:53:59.921Z,8.62
2023-02-03T18:56:35.724Z,8.45
2023-02-03T18:59:11.914Z,8.30
2023-02-03T19:01:42.568Z,8.39
2023-02-03T19:04:12.967Z,8.44
2023-02-03T19:06:45.793Z,8.63
2023-02-03T19:09:18.625Z,8.53
2023-02-03T19:11:49.701Z,8.51
2023-02-03T19:14:20.422Z,8.38
2023-02-03T19:16:53.689Z,8.34
2023-02-03T19:19:23.937Z,8.48
2023-02-03T19:21:54.471Z,8.32
2023-02-03T19:24:27.571Z,8.65
2023-02-03T19:26:58.975Z,8.83
2023-02-03T19:29:29.824Z,8.80
2023-02-03T19:32:00.557Z,8.77
2023-02-03T19:34:31.286Z,8.72
2023-02-03T19:37:01.908Z,8.56
2023-02-03T19:39:33.564Z,8.71
2023-02-03T19:42:05.553Z,8.92
2023-02-03T19:44:38.640Z,8.72
2023-02-03T19:47:09.133Z,8.94
2023-02-03T19:49:39.465Z,8.86
2023-02-03T19:52:10.636Z,8.88
2023-02-03T19:54:41.532Z,8.70
2023-02-03T19:57:13.294Z,8.89
2023-02-03T19:59:43.207Z,8.90
2023-02-03T20:02:16.414Z,8.87
2023-02-03T20:04:48.214Z,8.82
2023-02-03T20:07:25.711Z,9.10
2023-02-03T20:09:56.686Z,9.04
2023-02-03T20:12:28.728Z,8.85
2023-02-03T20:15:00.640Z,8.86
2023-02-03T20:17:31.497Z,8.92
2023-02-03T20:20:01.779Z,8.88
2023-02-03T20:22:32.524Z,8.80
2023-02-03T20:25:03.749Z,8.75
2023-02-03T20:27:35.684Z,8.78
2023-02-03T20:30:06.033Z,8.84
2023-02-03T20:32:36.694Z,8.94
2023-02-03T20:35:07.474Z,8.81
2023-02-03T20:37:38.308Z,8.85
2023-02-03T20:40:14.726Z,8.67
2023-02-03T20:42:47.679Z,8.68
2023-02-03T20:45:18.188Z,8.61
2023-02-03T20:47:49.093Z,8.59
2023-02-03T20:50:23.638Z,8.47
2023-02-03T20:52:58.724Z,8.31
2023-02-03T20:55:28.284Z,8.37
2023-02-03T20:58:02.785Z,8.30
2023-02-03T21:00:33.141Z,8.09
2023-02-03T21:03:21.831Z,8.19
2023-02-03T21:05:51.849Z,8.10
2023-02-03T21:08:23.504Z,8.17
2023-02-03T21:10:53.820Z,8.02
2023-02-03T21:13:27.392Z,7.92
2023-02-03T21:15:59.955Z,7.94
2023-02-03T21:18:37.385Z,7.79
2023-02-03T21:21:10.998Z,7.72
2023-02-03T21:23:42.657Z,7.76
2023-02-03T21:26:21.117Z,7.83
2023-02-03T21:28:55.852Z,8.22
2023-02-03T21:31:28.873Z,8.03
2023-02-03T21:34:00.180Z,7.86
2023-02-03T21:36:33.120Z,7.86
2023-02-03T21:39:03.955Z,7.81
2023-02-03T21:41:36.079Z,7.77
2023-02-03T21:44:29.992Z,7.63
2023-02-03T21:47:01.895Z,7.41
2023-02-03T21:49:32.790Z,7.36
2023-02-03T21:52:03.645Z,7.57
2023-02-03T21:54:38.862Z,7.32
2023-02-03T21:57:15.217Z,7.30
2023-02-03T21:59:47.456Z,7.41
2023-02-03T22:02:46.367Z,7.40
2023-02-03T22:05:18.264Z,7.33
2023-02-03T22:07:48.639Z,6.86
2023-02-03T22:10:20.136Z,7.00
2023-02-03T22:12:50.659Z,7.14
2023-02-03T22:15:22.889Z,7.04
2023-02-03T22:17:53.262Z,6.64
2023-02-03T22:20:23.386Z,6.80
2023-02-03T22:22:53.183Z,6.58
2023-02-03T22:25:24.435Z,6.88
2023-02-03T22:27:54.688Z,6.58
2023-02-03T22:30:26.403Z,6.44
2023-02-03T22:32:58.269Z,6.55
2023-02-03T22:35:29.212Z,6.79
2023-02-03T22:37:59.798Z,6.51
2023-02-03T22:40:30.646Z,6.45
2023-02-03T22:43:01.872Z,6.76
2023-02-03T22:45:33.819Z,6.51
2023-02-03T22:48:04.156Z,6.64
2023-02-03T22:50:36.393Z,6.32
2023-02-03T22:53:09.738Z,6.73
2023-02-03T22:55:41.642Z,6.57
2023-02-03T22:58:11.456Z,6.34
2023-02-03T23:00:43.384Z,6.34
2023-02-03T23:03:13.162Z,6.71
2023-02-03T23:05:43.292Z,6.55
2023-02-03T23:08:14.213Z,6.41
2023-02-03T23:10:44.370Z,6.37
2023-02-03T23:13:13.956Z,6.56
2023-02-03T23:15:45.743Z,6.46
2023-02-03T23:18:15.613Z,6.65
2023-02-03T23:20:46.357Z,6.61
2023-02-03T23:23:16.721Z,6.10
2023-02-03T23:25:46.870Z,6.27
2023-02-03T23:28:16.644Z,6.21
2023-02-03T23:30:48.394Z,6.29
2023-02-03T23:33:18.859Z,6.41
2023-02-03T23:35:48.112Z,6.10
2023-02-03T23:38:18.670Z,6.49
2023-02-03T23:40:50.317Z,6.23
2023-02-03T23:43:20.255Z,6.45
2023-02-03T23:45:51.764Z,6.12
2023-02-03T23:48:22.258Z,6.42
2023-02-03T23:50:52.382Z,6.38
2023-02-03T23:53:22.166Z,6.01
2023-02-03T23:55:52.652Z,6.30
2023-02-03T23:58:22.754Z,6.09
